Time;durP1;ratioP1;P1;durP2;ratioP2;P2;SDS_P1;SDS_P2;PMS_P1;PMS_P2;Temp;Humidity;BMP_temperature;BMP_pressure;BME280_temperature;BME280_humidity;BME280_pressure;Samples;Min_cycle;Max_cycle;Signal;HPM_P1;HPM_P2
2023/09/06 00:01:40;;;;;;;27.50;20.90;;;;;;;13.15;100.00;100013.32;109660;1251;72470;-81
2023/09/06 00:04:07;;;;;;;24.40;19.80;;;;;;;13.10;100.00;100016.88;109590;1251;61799;-79
2023/09/06 00:06:34;;;;;;;32.00;21.50;;;;;;;13.02;100.00;100017.95;109646;1251;59671;-81
2023/09/06 00:09:01;;;;;;;29.70;21.70;;;;;;;12.89;100.00;100019.77;109660;1251;75681;-76
2023/09/06 00:11:27;;;;;;;26.90;20.00;;;;;;;12.75;100.00;100021.52;109695;1251;59793;-79
2023/09/06 00:13:54;;;;;;;32.50;23.50;;;;;;;12.63;100.00;100023.98;109547;1251;72714;-82
2023/09/06 00:16:20;;;;;;;31.00;23.10;;;;;;;12.55;100.00;100023.48;109627;1250;60161;-84
2023/09/06 00:18:47;;;;;;;30.70;22.60;;;;;;;12.52;100.00;100023.56;109695;1251;59735;-82
2023/09/06 00:21:13;;;;;;;32.00;22.80;;;;;;;12.52;100.00;100028.73;109626;1251;74291;-82
2023/09/06 00:23:40;;;;;;;27.20;21.40;;;;;;;12.55;100.00;100031.16;109640;1255;66594;-80
2023/09/06 00:26:06;;;;;;;29.90;21.80;;;;;;;12.59;100.00;100035.83;109561;1250;60103;-85
2023/09/06 00:28:33;;;;;;;31.70;22.00;;;;;;;12.64;100.00;100034.52;109645;1251;60248;-78
2023/09/06 00:30:59;;;;;;;31.80;23.80;;;;;;;12.70;100.00;100035.96;109676;1250;59818;-83
2023/09/06 00:33:26;;;;;;;34.10;23.50;;;;;;;12.75;100.00;100037.70;109669;1251;75280;-79
2023/09/06 00:35:54;;;;;;;34.00;23.80;;;;;;;12.78;100.00;100041.58;109655;1250;66279;-76
2023/09/06 00:38:20;;;;;;;35.60;24.70;;;;;;;12.78;100.00;100038.98;109644;1250;72475;-76
2023/09/06 00:40:51;;;;;;;34.30;23.60;;;;;;;12.77;100.00;100039.46;109714;1251;60613;-77
2023/09/06 00:43:18;;;;;;;35.10;23.30;;;;;;;12.76;100.00;100034.81;109594;1251;59881;-76
2023/09/06 00:45:47;;;;;;;31.60;22.90;;;;;;;12.75;100.00;100036.69;109631;1251;60424;-80
2023/09/06 00:48:23;;;;;;;30.70;22.60;;;;;;;12.74;100.00;100036.96;109558;1251;66526;-80
2023/09/06 00:50:50;;;;;;;30.50;22.30;;;;;;;12.78;100.00;100035.95;109553;1251;71267;-78
2023/09/06 00:53:17;;;;;;;29.60;22.30;;;;;;;12.83;100.00;100035.52;109617;1251;59746;-78
2023/09/06 00:55:44;;;;;;;32.10;23.60;;;;;;;12.91;100.00;100032.58;109541;1251;60260;-77
2023/09/06 00:58:15;;;;;;;36.40;24.50;;;;;;;12.94;100.00;100030.90;109600;1250;74233;-80
2023/09/06 01:00:49;;;;;;;29.70;23.00;;;;;;;12.98;100.00;100026.38;109632;1251;67887;-80
2023/09/06 01:03:16;;;;;;;31.30;23.30;;;;;;;13.01;100.00;100027.42;109647;1250;72334;-79
2023/09/06 01:05:47;;;;;;;31.30;22.90;;;;;;;13.03;100.00;100026.22;109604;1251;61708;-77
2023/09/06 01:08:18;;;;;;;28.80;21.80;;;;;;;13.04;100.00;100025.14;109602;1251;59882;-77
2023/09/06 01:10:45;;;;;;;32.70;23.10;;;;;;;13.04;100.00;100027.30;109388;1251;74785;-79
2023/09/06 01:13:11;;;;;;;34.00;22.30;;;;;;;13.04;100.00;100025.02;109647;1250;66745;-77
2023/09/06 01:15:44;;;;;;;28.30;21.20;;;;;;;13.07;100.00;100023.29;109629;1251;71373;-80
2023/09/06 01:18:12;;;;;;;33.50;23.10;;;;;;;13.11;100.00;100021.91;109558;1250;60639;-76
2023/09/06 01:20:42;;;;;;;28.80;21.80;;;;;;;13.13;100.00;100019.54;109526;1251;59800;-77
2023/09/06 01:23:24;;;;;;;25.20;20.30;;;;;;;13.14;100.00;100020.74;109540;1251;75513;-79
2023/09/06 01:25:50;;;;;;;28.00;20.20;;;;;;;13.13;100.00;100019.38;109583;1250;67680;-78
2023/09/06 01:28:17;;;;;;;27.00;22.40;;;;;;;13.14;100.00;100022.80;109644;1250;59813;-78
2023/09/06 01:30:43;;;;;;;30.90;23.40;;;;;;;13.12;100.00;100018.45;109511;1251;59993;-80
2023/09/06 01:33:10;;;;;;;30.70;23.50;;;;;;;13.07;100.00;100015.73;109654;1251;59804;-80
2023/09/06 01:35:37;;;;;;;31.50;23.30;;;;;;;13.02;100.00;100014.70;109640;1250;74029;-80
2023/09/06 01:38:03;;;;;;;28.00;21.90;;;;;;;12.96;100.00;100009.36;109692;1251;67765;-76
2023/09/06 01:40:30;;;;;;;25.40;20.00;;;;;;;12.92;100.00;100014.23;109593;1251;72382;-81
2023/09/06 01:42:58;;;;;;;21.80;17.80;;;;;;;12.91;100.00;100013.24;109569;1251;61769;-75
2023/09/06 01:45:27;;;;;;;22.70;18.30;;;;;;;12.94;100.00;100009.90;109626;1250;60211;-78
2023/09/06 01:47:54;;;;;;;27.50;20.20;;;;;;;12.98;100.00;100011.26;109565;1255;74014;-75
2023/09/06 01:50:21;;;;;;;30.90;20.00;;;;;;;13.01;100.00;100013.80;109677;1250;67712;-76
2023/09/06 01:52:48;;;;;;;27.20;19.80;;;;;;;12.97;100.00;100014.52;109629;1251;72603;-81
2023/09/06 01:55:15;;;;;;;29.50;21.90;;;;;;;12.90;100.00;100011.58;109553;1251;60143;-79
2023/09/06 01:57:41;;;;;;;28.20;21.50;;;;;;;12.81;100.00;100007.11;109651;1251;59967;-77
2023/09/06 02:02:50;;;;;;;25.60;20.00;;;;;;;12.80;100.00;100000.51;109659;1251;67943;-81
2023/09/06 02:05:16;;;;;;;24.90;19.00;;;;;;;12.84;100.00;100001.45;109559;1250;72345;-74
2023/09/06 02:07:44;;;;;;;23.20;19.30;;;;;;;12.89;100.00;99998.86;109632;1251;61750;-80
2023/09/06 02:10:11;;;;;;;28.70;19.80;;;;;;;12.95;100.00;99999.67;109710;1251;60181;-80
2023/09/06 02:12:38;;;;;;;24.80;21.40;;;;;;;12.99;100.00;99997.63;109587;1251;75793;-76
2023/09/06 02:15:06;;;;;;;26.40;21.00;;;;;;;12.98;100.00;99996.66;109717;1251;67853;-74
2023/09/06 02:17:33;;;;;;;30.50;21.80;;;;;;;12.94;100.00;99994.81;109673;1250;71206;-79
2023/09/06 02:20:13;;;;;;;24.40;21.30;;;;;;;12.89;100.00;99996.77;109633;1250;60369;-81
2023/09/06 02:22:40;;;;;;;27.10;20.40;;;;;;;12.84;100.00;99998.29;109570;1251;59698;-77
2023/09/06 02:25:08;;;;;;;26.20;20.40;;;;;;;12.79;100.00;100001.48;109610;1251;75164;-77
2023/09/06 02:27:35;;;;;;;25.80;19.90;;;;;;;12.72;100.00;99999.06;109709;1250;67863;-78
2023/09/06 02:30:05;;;;;;;27.40;21.00;;;;;;;12.68;100.00;99998.14;109664;1250;71119;-84
2023/09/06 02:32:32;;;;;;;29.10;19.30;;;;;;;12.61;100.00;99997.45;109605;1251;60186;-78
2023/09/06 02:34:59;;;;;;;25.60;21.50;;;;;;;12.52;100.00;99996.93;109676;1250;60139;-78
2023/09/06 02:37:26;;;;;;;25.20;20.40;;;;;;;12.43;100.00;100000.26;109605;1251;75417;-79
2023/09/06 02:39:52;;;;;;;24.50;18.20;;;;;;;12.38;100.00;100000.56;109630;1251;66405;-80
2023/09/06 02:42:20;;;;;;;21.60;18.10;;;;;;;12.36;100.00;100000.96;109630;1250;72332;-82
2023/09/06 02:44:47;;;;;;;27.20;20.00;;;;;;;12.36;100.00;100000.67;109733;1251;62013;-75
2023/09/06 02:47:17;;;;;;;27.80;20.60;;;;;;;12.37;100.00;99999.64;109672;1251;59926;-81
2023/09/06 02:49:45;;;;;;;26.50;18.20;;;;;;;12.37;100.00;99998.67;109538;1251;73737;-80
2023/09/06 02:52:20;;;;;;;23.20;17.50;;;;;;;12.37;100.00;100000.36;109701;1250;66421;-81
2023/09/06 02:54:47;;;;;;;24.00;19.70;;;;;;;12.37;100.00;99999.60;109618;1251;72546;-79
2023/09/06 02:57:17;;;;;;;22.90;18.20;;;;;;;12.39;100.00;100001.56;109541;1251;59786;-82
2023/09/06 02:59:44;;;;;;;26.30;20.10;;;;;;;12.37;100.00;99999.77;109623;1251;59840;-79
2023/09/06 03:02:12;;;;;;;27.40;19.70;;;;;;;12.36;100.00;100000.48;109685;1251;74208;-78
2023/09/06 03:04:40;;;;;;;21.20;17.70;;;;;;;12.36;100.00;100001.13;109556;1251;66717;-78
2023/09/06 03:07:07;;;;;;;22.40;19.70;;;;;;;12.36;100.00;100001.27;109634;1251;72637;-78
2023/09/06 03:09:39;;;;;;;22.40;17.80;;;;;;;12.37;100.00;100004.20;109533;1250;60547;-76
2023/09/06 03:12:12;;;;;;;23.80;17.90;;;;;;;12.39;100.00;100007.10;109602;1251;59650;-75
2023/09/06 03:14:44;;;;;;;23.40;19.00;;;;;;;12.40;100.00;100008.90;109558;1250;74731;-76
2023/09/06 03:17:11;;;;;;;24.80;19.30;;;;;;;12.42;100.00;100013.63;109605;1250;66600;-74
2023/09/06 03:19:41;;;;;;;26.30;19.80;;;;;;;12.44;100.00;100016.99;109604;1250;72483;-80
2023/09/06 03:22:09;;;;;;;30.00;20.30;;;;;;;12.45;100.00;100021.40;109615;1251;59675;-73
2023/09/06 03:24:40;;;;;;;26.70;20.10;;;;;;;12.40;100.00;100021.14;109598;1250;60295;-77
2023/09/06 03:27:10;;;;;;;27.40;20.60;;;;;;;12.38;100.00;100023.80;109560;1251;75635;-77
2023/09/06 03:29:36;;;;;;;20.70;17.80;;;;;;;12.39;100.00;100022.84;109551;1251;66765;-79
2023/09/06 03:32:09;;;;;;;24.00;16.30;;;;;;;12.45;100.00;100021.56;109656;1250;73251;-80
2023/09/06 03:34:37;;;;;;;23.30;17.30;;;;;;;12.54;100.00;100016.11;109544;1250;59795;-78
2023/09/06 03:37:05;;;;;;;20.30;17.00;;;;;;;12.64;100.00;100012.65;109570;1250;59688;-79
2023/09/06 03:39:32;;;;;;;24.10;17.80;;;;;;;12.72;100.00;100011.13;109571;1250;75408;-77
2023/09/06 03:42:02;;;;;;;20.20;17.80;;;;;;;12.79;100.00;100004.14;109576;1250;66433;-78
2023/09/06 03:44:31;;;;;;;23.80;17.70;;;;;;;12.82;100.00;100003.42;109525;1251;72833;-75
2023/09/06 03:46:58;;;;;;;23.50;18.50;;;;;;;12.85;100.00;100007.63;109581;1251;60910;-73
2023/09/06 03:49:26;;;;;;;21.30;18.10;;;;;;;12.87;100.00;100012.55;109585;1250;59809;-79
2023/09/06 03:51:57;;;;;;;21.50;17.10;;;;;;;12.87;100.00;100014.52;109455;1249;75468;-75
2023/09/06 03:54:24;;;;;;;20.50;16.60;;;;;;;12.87;100.00;100008.63;109475;1250;67702;-70
2023/09/06 03:56:50;;;;;;;22.80;17.40;;;;;;;12.89;100.00;100010.85;109569;1250;71329;-71
2023/09/06 03:59:17;;;;;;;24.50;17.10;;;;;;;12.90;100.00;100010.02;109507;1251;60318;-73
2023/09/06 04:01:45;;;;;;;22.70;17.30;;;;;;;12.89;100.00;100012.83;109603;1250;60388;-74
2023/09/06 04:04:12;;;;;;;24.60;17.80;;;;;;;12.88;100.00;100018.63;109453;1250;75760;-73
2023/09/06 04:06:43;;;;;;;21.70;16.90;;;;;;;12.85;100.00;100016.96;109558;1250;66523;-73
2023/09/06 04:09:14;;;;;;;27.60;19.10;;;;;;;12.81;100.00;100019.02;109503;1250;72602;-72
2023/09/06 04:11:41;;;;;;;25.40;19.60;;;;;;;12.78;100.00;100022.30;109544;1250;60702;-74
2023/09/06 04:14:08;;;;;;;20.90;16.40;;;;;;;12.77;100.00;100022.06;109528;1250;59984;-69
2023/09/06 04:16:37;;;;;;;24.90;17.20;;;;;;;12.81;100.00;100022.66;109594;1250;75422;-65
2023/09/06 04:19:05;;;;;;;22.80;17.30;;;;;;;12.91;100.00;100024.73;109584;1250;66933;-74
2023/09/06 04:21:32;;;;;;;20.50;18.20;;;;;;;13.01;100.00;100027.84;109506;1250;73211;-68
2023/09/06 04:23:59;;;;;;;21.90;18.50;;;;;;;13.09;100.00;100027.88;109488;1250;60402;-72
2023/09/06 04:26:25;;;;;;;25.70;18.40;;;;;;;13.18;100.00;100026.08;109512;1250;59883;-77
2023/09/06 04:28:52;;;;;;;23.50;17.60;;;;;;;13.35;100.00;100022.16;109704;1250;73990;-72
2023/09/06 04:31:20;;;;;;;24.90;18.10;;;;;;;13.58;100.00;100028.52;109710;1250;67896;-72
2023/09/06 04:33:47;;;;;;;26.30;18.50;;;;;;;13.86;100.00;100030.71;109601;1250;72838;-77
2023/09/06 04:36:25;;;;;;;28.60;19.30;;;;;;;14.11;100.00;100025.88;109554;1250;59700;-75
2023/09/06 04:38:58;;;;;;;30.80;20.40;;;;;;;14.34;100.00;100027.99;109552;1250;60014;-71
2023/09/06 04:41:25;;;;;;;32.00;21.00;;;;;;;14.59;100.00;100024.25;109587;1250;73867;-69
2023/09/06 04:43:55;;;;;;;34.00;21.10;;;;;;;14.90;100.00;100022.52;109457;1250;66663;-74
2023/09/06 04:46:22;;;;;;;37.60;21.10;;;;;;;15.22;100.00;100018.91;109616;1250;71411;-73
2023/09/06 04:48:50;;;;;;;32.90;21.30;;;;;;;15.59;100.00;100017.54;109507;1250;59821;-75
2023/09/06 04:51:17;;;;;;;35.40;22.60;;;;;;;16.05;100.00;100017.88;109664;1250;59678;-74
2023/09/06 04:53:44;;;;;;;31.30;20.90;;;;;;;16.56;100.00;100014.56;109590;1250;75450;-75
2023/09/06 04:56:10;;;;;;;34.80;22.70;;;;;;;17.05;100.00;100009.83;109578;1250;66426;-70
2023/09/06 04:58:42;;;;;;;40.90;21.90;;;;;;;17.49;100.00;100007.72;109491;1250;72533;-68
2023/09/06 05:01:10;;;;;;;43.20;23.10;;;;;;;17.86;100.00;100012.60;109506;1250;59993;-67
2023/09/06 05:03:38;;;;;;;39.00;22.40;;;;;;;18.20;100.00;100008.58;109574;1250;59650;-68
2023/09/06 05:06:04;;;;;;;36.70;21.60;;;;;;;18.51;100.00;100008.26;109642;1250;75468;-65
2023/09/06 05:08:32;;;;;;;34.10;21.50;;;;;;;18.83;100.00;100009.14;109688;1250;66723;-71
2023/09/06 05:11:03;;;;;;;31.10;20.10;;;;;;;19.14;100.00;100003.52;109641;1250;70872;-68
2023/09/06 05:13:31;;;;;;;30.80;19.90;;;;;;;19.40;100.00;100002.88;109544;1251;60269;-69
2023/09/06 05:16:01;;;;;;;33.40;20.20;;;;;;;19.52;100.00;100001.48;109395;1250;174884;-69
2023/09/06 05:18:29;;;;;;;40.30;20.20;;;;;;;19.59;100.00;100001.20;109526;1250;74619;-69
2023/09/06 05:20:59;;;;;;;37.70;20.10;;;;;;;19.73;100.00;100001.88;109527;1250;66770;-69
2023/09/06 05:23:25;;;;;;;30.70;17.90;;;;;;;19.97;100.00;100002.01;109476;1250;72449;-70
2023/09/06 05:25:52;;;;;;;26.10;18.10;;;;;;;20.28;100.00;99999.71;109650;1250;60233;-70
2023/09/06 05:28:26;;;;;;;25.10;17.70;;;;;;;20.71;100.00;100000.21;109422;1250;59741;-70
2023/09/06 05:30:57;;;;;;;21.50;17.30;;;;;;;21.11;100.00;99994.95;109430;1250;75161;-70
2023/09/06 05:33:24;;;;;;;21.40;17.60;;;;;;;21.50;100.00;99997.06;109437;1250;66944;-71
2023/09/06 05:35:51;;;;;;;20.90;17.20;;;;;;;21.87;100.00;100000.58;109391;1250;71174;-70
2023/09/06 05:38:17;;;;;;;21.10;18.50;;;;;;;22.21;100.00;99999.30;109334;1250;60383;-70
2023/09/06 05:40:44;;;;;;;25.10;18.30;;;;;;;22.52;100.00;99998.98;109457;1250;59894;-70
2023/09/06 05:43:17;;;;;;;19.10;16.40;;;;;;;22.85;100.00;100000.21;109537;1250;75286;-71
2023/09/06 05:45:44;;;;;;;20.60;17.60;;;;;;;23.16;100.00;100003.39;109709;1250;67775;-71
2023/09/06 05:48:12;;;;;;;23.60;18.70;;;;;;;23.50;100.00;99999.44;109509;1250;72758;-71
2023/09/06 05:50:39;;;;;;;22.60;17.90;;;;;;;23.75;98.23;99999.21;109509;1252;59771;-71
2023/09/06 05:53:06;;;;;;;19.20;17.30;;;;;;;23.87;95.44;100000.70;109533;1251;59985;-70
2023/09/06 05:55:33;;;;;;;19.60;16.30;;;;;;;24.05;93.60;100005.64;109640;1250;74212;-70
2023/09/06 05:58:00;;;;;;;18.30;16.50;;;;;;;24.25;91.19;100001.23;109696;1250;68284;-70
2023/09/06 06:00:28;;;;;;;21.50;17.00;;;;;;;24.42;88.65;99999.95;109578;1250;72628;-70
2023/09/06 06:02:58;;;;;;;22.20;17.10;;;;;;;24.60;87.31;100001.41;109705;1250;60241;-70
2023/09/06 06:05:25;;;;;;;20.60;16.00;;;;;;;24.77;85.46;100003.37;109684;1250;60106;-70
2023/09/06 06:07:51;;;;;;;20.00;16.30;;;;;;;25.00;83.59;99998.54;109702;1250;74859;-70
2023/09/06 06:10:18;;;;;;;19.00;17.00;;;;;;;25.21;81.63;99998.45;109660;1250;66515;-70
2023/09/06 06:12:47;;;;;;;21.40;16.30;;;;;;;25.41;80.02;99999.45;109728;1250;59815;-70
2023/09/06 06:15:15;;;;;;;16.70;14.90;;;;;;;25.64;78.27;100001.33;109607;1250;60174;-71
2023/09/06 06:17:42;;;;;;;20.90;16.70;;;;;;;25.86;76.70;100002.33;109629;1250;60009;-70
2023/09/06 06:20:10;;;;;;;21.00;16.60;;;;;;;26.03;74.97;100000.64;109668;1250;74324;-71
2023/09/06 06:22:37;;;;;;;19.20;16.90;;;;;;;26.19;73.15;100000.91;109695;1250;69552;-71
2023/09/06 06:25:08;;;;;;;26.60;18.70;;;;;;;26.28;72.40;99998.88;109650;1250;71599;-71
2023/09/06 06:27:36;;;;;;;23.00;17.60;;;;;;;26.42;71.97;99996.80;109391;1251;60259;-70
2023/09/06 06:30:05;;;;;;;21.70;16.60;;;;;;;26.61;70.79;99997.05;109618;1250;59774;-70
2023/09/06 06:32:38;;;;;;;21.50;16.50;;;;;;;26.81;69.43;99998.92;109626;1250;75913;-70
2023/09/06 06:35:06;;;;;;;18.50;13.90;;;;;;;26.97;67.74;100001.63;109638;1250;67855;-71
2023/09/06 06:37:33;;;;;;;15.70;14.10;;;;;;;27.14;66.41;99998.17;109639;1250;73041;-70
2023/09/06 06:40:00;;;;;;;17.70;14.10;;;;;;;27.27;64.42;99997.35;109654;1250;59757;-70
2023/09/06 06:42:27;;;;;;;18.80;12.20;;;;;;;27.40;63.76;99997.48;109602;1251;59717;-71
2023/09/06 06:44:58;;;;;;;19.10;13.30;;;;;;;27.65;63.02;99999.48;109654;1250;75512;-71
2023/09/06 06:47:25;;;;;;;13.20;11.90;;;;;;;27.89;61.71;99992.55;109569;1250;66893;-71
2023/09/06 06:49:52;;;;;;;18.10;11.60;;;;;;;28.20;59.77;99994.14;109567;1250;72085;-70
2023/09/06 06:52:19;;;;;;;12.70;11.10;;;;;;;28.45;58.94;99993.64;109545;1250;59768;-71
2023/09/06 06:54:48;;;;;;;12.60;11.20;;;;;;;28.64;57.69;99991.94;109668;1250;59665;-71
2023/09/06 06:57:15;;;;;;;10.90;10.00;;;;;;;28.81;56.37;99990.98;109655;1251;75451;-71
2023/09/06 06:59:41;;;;;;;11.90;9.80;;;;;;;28.92;55.45;99991.30;109568;1250;67706;-71
2023/09/06 07:02:08;;;;;;;9.80;8.80;;;;;;;29.12;54.66;99990.79;109583;1251;60112;-71
2023/09/06 07:04:38;;;;;;;9.90;8.90;;;;;;;29.32;53.23;99991.02;109253;1250;59779;-71
2023/09/06 07:07:04;;;;;;;10.70;8.80;;;;;;;29.51;51.62;99991.53;109673;1250;60513;-70
2023/09/06 07:09:31;;;;;;;11.70;9.50;;;;;;;29.65;51.05;99988.05;109712;1250;73422;-71
2023/09/06 07:11:58;;;;;;;11.30;8.80;;;;;;;29.82;51.03;99989.18;109624;1250;67056;-71
2023/09/06 07:14:24;;;;;;;10.30;8.50;;;;;;;30.03;50.73;99987.02;109646;1250;72802;-69
2023/09/06 07:16:51;;;;;;;10.50;8.70;;;;;;;30.30;50.16;99988.13;109547;1250;59812;-69
2023/09/06 07:19:18;;;;;;;10.20;9.20;;;;;;;30.54;48.96;99989.36;109675;1250;59681;-69
2023/09/06 07:21:46;;;;;;;11.20;9.40;;;;;;;30.74;47.46;99984.43;109563;1250;59937;-70
2023/09/06 07:24:14;;;;;;;9.00;8.10;;;;;;;30.87;46.94;99983.92;109681;1250;66918;-71
2023/09/06 07:26:41;;;;;;;10.40;8.20;;;;;;;30.95;46.35;99986.39;109628;1250;71235;-70
2023/09/06 07:29:09;;;;;;;8.60;7.40;;;;;;;31.11;45.94;99985.55;109595;1254;59704;-70
2023/09/06 07:31:36;;;;;;;9.50;8.60;;;;;;;31.32;45.19;99981.33;109650;1250;59702;-70
2023/09/06 07:34:03;;;;;;;9.10;8.20;;;;;;;31.60;45.54;99980.61;109625;1250;75580;-70
2023/09/06 07:36:30;;;;;;;8.30;7.30;;;;;;;31.83;44.03;99977.78;109665;1250;66366;-70
2023/09/06 07:38:57;;;;;;;7.80;6.90;;;;;;;31.98;42.56;99974.10;109611;1250;72684;-70
2023/09/06 07:41:25;;;;;;;8.40;7.60;;;;;;;31.96;41.23;99974.52;109619;1250;60093;-70
2023/09/06 07:43:52;;;;;;;9.10;7.20;;;;;;;31.87;41.52;99972.66;109607;1250;59893;-70
2023/09/06 07:46:19;;;;;;;12.60;7.60;;;;;;;31.93;41.79;99969.39;109646;1250;75282;-70
2023/09/06 07:48:45;;;;;;;9.10;7.60;;;;;;;32.11;41.03;99971.45;109689;1250;66778;-70
2023/09/06 07:51:12;;;;;;;8.40;6.50;;;;;;;32.29;40.88;99967.16;109622;1250;71760;-70
2023/09/06 07:53:39;;;;;;;8.80;7.10;;;;;;;32.44;40.40;99969.63;109626;1250;61244;-70
2023/09/06 07:56:07;;;;;;;9.20;6.80;;;;;;;32.61;39.88;99971.83;109667;1250;59778;-70
2023/09/06 07:58:34;;;;;;;6.50;5.80;;;;;;;32.74;38.88;99968.09;109615;1250;75484;-70
2023/09/06 08:01:01;;;;;;;9.70;7.10;;;;;;;32.85;39.05;99963.91;109658;1249;67906;-70
2023/09/06 08:03:46;;;;;;;9.10;7.00;;;;;;;32.98;39.06;99961.41;109582;1250;71168;-70
2023/09/06 08:06:13;;;;;;;8.30;7.50;;;;;;;33.07;38.75;99963.77;109605;1250;59776;-70
2023/09/06 08:08:40;;;;;;;8.00;6.40;;;;;;;33.23;38.07;99961.46;109678;1250;59645;-70
2023/09/06 08:11:07;;;;;;;8.70;6.50;;;;;;;33.33;37.63;99965.02;109693;1249;73988;-70
2023/09/06 08:13:41;;;;;;;9.00;6.30;;;;;;;33.48;37.71;99962.09;109660;1250;59790;-69
2023/09/06 08:16:07;;;;;;;8.90;6.70;;;;;;;33.69;36.90;99962.85;109641;1250;72503;-70
2023/09/06 08:18:37;;;;;;;8.40;6.10;;;;;;;33.74;36.62;99959.96;109622;1250;60183;-70
2023/09/06 08:21:04;;;;;;;8.20;6.00;;;;;;;33.75;36.43;99958.09;109601;1250;59835;-71
2023/09/06 08:23:31;;;;;;;7.90;7.00;;;;;;;33.75;36.15;99963.05;109708;1250;75644;-70
2023/09/06 08:25:58;;;;;;;7.70;6.90;;;;;;;33.78;35.79;99962.75;109533;1250;68164;-69
2023/09/06 08:28:27;;;;;;;13.00;6.00;;;;;;;33.86;35.61;99959.96;109654;1250;71645;-69
2023/09/06 08:30:55;;;;;;;6.00;5.40;;;;;;;33.85;35.29;99956.19;109555;1251;59699;-69
2023/09/06 08:33:21;;;;;;;6.60;6.00;;;;;;;33.85;34.75;99959.17;109693;1250;60198;-69
2023/09/06 08:35:48;;;;;;;5.60;4.90;;;;;;;33.82;34.70;99961.16;109633;1250;73846;-69
2023/09/06 08:38:15;;;;;;;7.40;5.40;;;;;;;33.84;34.70;99960.27;109595;1250;67946;-69
2023/09/06 08:40:41;;;;;;;5.90;5.30;;;;;;;33.97;34.59;99958.54;109688;1250;71220;-69
2023/09/06 08:43:11;;;;;;;5.00;4.50;;;;;;;34.18;34.39;99957.29;109626;1250;60148;-70
2023/09/06 08:45:38;;;;;;;7.70;4.70;;;;;;;34.36;33.66;99958.05;109626;1250;60242;-70
2023/09/06 08:48:05;;;;;;;5.10;3.90;;;;;;;34.36;32.99;99954.74;109587;1251;75393;-69
2023/09/06 08:50:32;;;;;;;6.80;4.60;;;;;;;34.37;32.68;99954.91;109581;1250;67908;-69
2023/09/06 08:52:59;;;;;;;6.10;4.20;;;;;;;34.47;33.24;99954.85;109543;1250;72513;-69
2023/09/06 08:55:26;;;;;;;3.50;3.30;;;;;;;34.70;33.03;99952.06;109608;1250;60283;-70
2023/09/06 08:57:53;;;;;;;3.90;3.60;;;;;;;34.88;32.69;99954.61;109560;1250;59761;-70
2023/09/06 09:00:23;;;;;;;3.90;3.50;;;;;;;34.96;31.81;99953.05;109525;1250;74200;-71
2023/09/06 09:02:50;;;;;;;3.50;3.30;;;;;;;34.95;31.63;99949.99;109689;1250;67924;-70
2023/09/06 09:05:16;;;;;;;4.80;4.40;;;;;;;34.93;31.41;99951.09;109625;1250;71476;-70
2023/09/06 09:07:49;;;;;;;6.20;3.90;;;;;;;34.89;31.46;99946.45;109617;1250;60018;-70
2023/09/06 09:10:20;;;;;;;4.40;3.90;;;;;;;34.84;31.49;99945.78;109449;1251;59666;-70
2023/09/06 09:12:48;;;;;;;3.70;3.40;;;;;;;34.80;31.54;99944.64;109688;1250;74178;-70
2023/09/06 09:15:15;;;;;;;4.30;3.30;;;;;;;34.81;31.10;99945.74;109696;1250;67663;-70
2023/09/06 09:17:50;;;;;;;4.30;3.50;;;;;;;34.74;31.08;99945.09;109612;1250;72787;-69
2023/09/06 09:20:27;;;;;;;3.80;3.30;;;;;;;34.59;31.21;99947.94;109659;1250;60157;-70
2023/09/06 09:23:03;;;;;;;5.90;3.60;;;;;;;34.52;31.48;99947.95;109675;1250;59789;-70
2023/09/06 09:25:30;;;;;;;6.90;3.20;;;;;;;34.61;31.48;99949.23;109744;1250;75771;-70
2023/09/06 09:27:57;;;;;;;7.10;3.70;;;;;;;34.60;31.26;99950.48;109438;1250;66535;-69
2023/09/06 09:30:24;;;;;;;3.50;3.20;;;;;;;34.49;31.10;99946.66;109654;1250;73041;-70
2023/09/06 09:33:03;;;;;;;5.50;3.20;;;;;;;34.38;30.91;99944.39;109514;1251;59848;-70
2023/09/06 09:35:31;;;;;;;3.20;2.90;;;;;;;34.23;30.68;99942.71;109626;1250;61617;-70
2023/09/06 09:38:02;;;;;;;3.30;2.80;;;;;;;34.16;31.26;99939.12;109659;1249;75758;-70
2023/09/06 09:40:32;;;;;;;3.60;3.30;;;;;;;34.22;31.37;99944.48;109592;1250;66533;-70
2023/09/06 09:43:19;;;;;;;3.60;3.30;;;;;;;34.14;30.84;99941.92;109649;1250;72052;-70
2023/09/06 09:45:46;;;;;;;4.20;3.50;;;;;;;34.02;31.22;99945.67;109662;1250;59914;-71
2023/09/06 09:48:17;;;;;;;3.00;2.70;;;;;;;33.97;31.48;99946.55;109664;1250;59578;-72
2023/09/06 09:50:46;;;;;;;11.40;4.10;;;;;;;33.78;31.67;99945.74;109379;1251;75988;-71
2023/09/06 09:53:13;;;;;;;4.60;2.50;;;;;;;33.29;31.65;99943.03;109705;1250;66906;-70
2023/09/06 09:55:46;;;;;;;3.50;3.10;;;;;;;32.63;31.65;99944.39;109627;1250;72673;-70
2023/09/06 09:58:13;;;;;;;3.10;2.80;;;;;;;32.17;33.34;99944.80;109626;1250;59773;-70
2023/09/06 10:00:41;;;;;;;3.20;2.70;;;;;;;32.10;33.80;99942.45;109605;1253;60362;-70
2023/09/06 10:03:08;;;;;;;3.60;2.50;;;;;;;32.07;33.83;99941.67;109666;1250;75573;-71
2023/09/06 10:05:37;;;;;;;2.80;2.60;;;;;;;32.09;34.03;99943.35;109590;1250;68168;-70
2023/09/06 10:08:05;;;;;;;3.50;3.00;;;;;;;32.20;33.63;99940.18;109672;1250;72436;-70
2023/09/06 10:10:33;;;;;;;4.40;2.80;;;;;;;32.13;33.67;99942.73;109667;1250;59791;-70
2023/09/06 10:13:04;;;;;;;3.10;2.80;;;;;;;32.14;34.49;99937.59;109649;1250;59688;-70
2023/09/06 10:15:32;;;;;;;3.40;3.10;;;;;;;32.28;34.77;99942.14;109641;1250;74168;-70
2023/09/06 10:17:59;;;;;;;3.00;2.70;;;;;;;32.31;34.01;99941.09;109453;1250;66784;-70
2023/09/06 10:20:27;;;;;;;4.50;3.10;;;;;;;32.13;33.61;99941.20;109655;1250;72522;-70
2023/09/06 10:22:55;;;;;;;4.00;2.60;;;;;;;31.72;34.13;99944.46;109617;1250;59807;-70
2023/09/06 10:25:22;;;;;;;3.50;3.20;;;;;;;31.21;34.49;99951.23;109622;1250;59699;-70
2023/09/06 10:27:50;;;;;;;4.00;3.00;;;;;;;30.73;35.23;99948.33;109704;1250;75588;-70
2023/09/06 10:30:21;;;;;;;3.30;2.70;;;;;;;30.43;36.26;99947.09;109744;1249;67909;-70
2023/09/06 10:32:48;;;;;;;5.80;2.80;;;;;;;30.30;36.63;99945.80;109660;1250;73752;-71
2023/09/06 10:35:25;;;;;;;3.20;2.80;;;;;;;30.27;37.26;99944.90;109512;1250;60060;-70
2023/09/06 10:38:02;;;;;;;4.50;3.20;;;;;;;30.27;37.25;99939.31;109670;1250;59646;-70
2023/09/06 10:41:04;;;;;;;4.90;3.30;;;;;;;30.29;37.67;99938.52;109671;1250;75547;-70
2023/09/06 10:43:43;;;;;;;4.00;3.10;;;;;;;30.33;37.86;99939.74;109635;1250;68143;-70
2023/09/06 10:46:09;;;;;;;3.10;2.80;;;;;;;30.30;37.64;99941.13;109488;1253;72648;-70
2023/09/06 10:48:36;;;;;;;3.30;2.90;;;;;;;30.24;37.73;99939.50;109489;1250;59759;-70
2023/09/06 10:51:04;;;;;;;3.10;2.60;;;;;;;30.16;37.35;99939.40;109513;1250;59862;-70
2023/09/06 10:53:30;;;;;;;2.80;2.60;;;;;;;29.90;36.89;99932.52;109669;1250;75970;-70
2023/09/06 10:55:59;;;;;;;4.90;3.00;;;;;;;29.59;37.55;99936.29;109584;1250;66514;-69
2023/09/06 10:58:27;;;;;;;3.00;2.70;;;;;;;29.36;37.74;99936.16;109508;1250;72409;-67
2023/09/06 11:01:13;;;;;;;3.00;2.80;;;;;;;29.14;38.06;99937.21;109490;1250;59766;-69
2023/09/06 11:03:41;;;;;;;3.40;3.10;;;;;;;28.98;38.79;99930.09;109578;1251;59785;-70
2023/09/06 11:06:09;;;;;;;9.70;3.00;;;;;;;28.94;39.29;99930.45;109707;1250;75332;-74
2023/09/06 11:08:39;;;;;;;3.40;3.10;;;;;;;28.91;39.67;99928.55;109670;1249;66688;-68
2023/09/06 11:11:07;;;;;;;4.30;2.80;;;;;;;28.90;39.39;99929.38;109686;1250;73937;-68
2023/09/06 11:13:37;;;;;;;3.80;2.60;;;;;;;28.80;39.50;99927.20;109618;1250;60611;-72
2023/09/06 11:16:04;;;;;;;3.20;3.00;;;;;;;28.73;39.82;99926.23;109641;1250;59757;-71